MAX weather

Miguel Aleman Airport
Comitán, Chiapas, Mexico

Public forecast

Using degrees Celsius for public forecast. Weather courtesy of forecast.io.

Closest aviation weather report (METAR) to Miguel Aleman Airport

Closest report is Angel Albino Corzo International Airport, 56.4 nm (104.5 km) WNW. Retrieved 2019/12/11 02:42 UTC (0 seconds ago):

MMTG 110242Z 26004KT 10SM SKC 22/15 A2999 RMK SLP130 52029 914

Closest aviation forecast (TAF) to Miguel Aleman Airport

Forecast is more than 6 hours old.

Closest forecast is Angel Albino Corzo International Airport, 56.4 nm (104.5 km) WNW. Retrieved 2019/12/10 18:24 UTC (8 hours ago):

TAF TAF MMTG 101721Z 1018/1118 12005KT P6SM SCT020 SCT300 BECMG 1020/1021 32010KT FM110200 32005KT P6SM SCT080 BECMG 1105/1106 00000KT FM111000 00000KT 5SM HZ SCT015 TEMPO 1111/1115 3SM BR HZ BKN015 FM111600 32006KT 6SM HZ SCT015 SCT080